createdAt,value
2018-01-22T15:46:33.208Z,99919.80
2018-01-22T15:49:07.113Z,99920.57
2018-01-22T15:51:39.708Z,99920.58
2018-01-22T15:54:15.316Z,99933.22
2018-01-22T15:56:48.318Z,99931.11
2018-01-22T15:59:21.168Z,99938.69
2018-01-22T16:01:53.707Z,99939.14
2018-01-22T16:04:38.654Z,99935.73
2018-01-22T16:07:12.124Z,99934.47
2018-01-22T16:09:45.063Z,99938.41
2018-01-22T16:12:17.556Z,99949.73
2018-01-22T16:14:51.285Z,99949.23
2018-01-22T16:17:23.996Z,99954.22
2018-01-22T16:19:56.820Z,99958.00
2018-01-22T16:22:29.320Z,99966.02
2018-01-22T16:25:01.831Z,99969.34
2018-01-22T16:27:34.703Z,99977.34
2018-01-22T16:30:07.552Z,99976.92
2018-01-22T16:32:41.080Z,99978.63
2018-01-22T16:35:13.632Z,99987.09
2018-01-22T16:37:46.154Z,99999.72
2018-01-22T16:40:18.914Z,100001.44
2018-01-22T16:42:51.753Z,100008.62
2018-01-22T16:45:24.432Z,100011.14
2018-01-22T16:47:57.859Z,100023.39
2018-01-22T16:50:30.601Z,100028.47
2018-01-22T16:53:03.765Z,100036.48
2018-01-22T16:55:36.692Z,100036.92
2018-01-22T16:58:09.317Z,100040.27
2018-01-22T17:00:41.948Z,100052.12
2018-01-22T17:03:14.687Z,100059.28
2018-01-22T17:05:47.236Z,100060.95
2018-01-22T17:08:20.074Z,100066.43
2018-01-22T17:10:53.174Z,100076.55
2018-01-22T17:13:25.901Z,100071.11
2018-01-22T17:15:58.584Z,100086.30
2018-01-22T17:18:31.296Z,100083.77
2018-01-22T17:21:04.485Z,100090.06
2018-01-22T17:23:37.216Z,100092.99
2018-01-22T17:26:09.885Z,100101.41
2018-01-22T17:28:42.603Z,100110.27
2018-01-22T17:31:15.259Z,100111.09
2018-01-22T17:33:47.874Z,100112.81
2018-01-22T17:36:20.648Z,100117.92
2018-01-22T17:38:53.281Z,100131.06
2018-01-22T17:41:26.043Z,100140.76
2018-01-22T17:43:58.756Z,100150.43
2018-01-22T17:46:31.504Z,100147.03
2018-01-22T17:49:05.221Z,100146.67
2018-01-22T17:51:37.988Z,100148.84
2018-01-22T17:54:10.709Z,100152.23
2018-01-22T17:56:43.235Z,100151.02
2018-01-22T17:59:16.080Z,100159.16
2018-01-22T18:01:48.943Z,100157.82
2018-01-22T18:04:21.587Z,100158.84
2018-01-22T18:06:54.130Z,100168.58
2018-01-22T18:09:28.489Z,100180.75
2018-01-22T18:12:01.154Z,100186.17
2018-01-22T18:14:34.845Z,100181.41
2018-01-22T18:17:07.368Z,100185.14
2018-01-22T18:19:40.855Z,100189.79
2018-01-22T18:22:14.038Z,100186.08
2018-01-22T18:24:47.880Z,100184.98
2018-01-22T18:27:20.406Z,100185.75
2018-01-22T18:29:53.914Z,100176.84
2018-01-22T18:32:27.112Z,100181.91
2018-01-22T18:34:59.889Z,100184.83
2018-01-22T18:37:33.497Z,100186.89
2018-01-22T18:40:06.695Z,100189.37
2018-01-22T18:42:39.774Z,100183.47
2018-01-22T18:45:12.692Z,100192.31
2018-01-22T18:47:46.223Z,100201.20
2018-01-22T18:50:19.053Z,100206.66
2018-01-22T18:52:51.728Z,100208.16
2018-01-22T18:55:24.371Z,100213.61
2018-01-22T18:57:57.015Z,100222.88
2018-01-22T19:00:29.696Z,100225.84
2018-01-22T19:03:02.255Z,100219.10
2018-01-22T19:05:35.956Z,100215.52
2018-01-22T19:08:09.463Z,100217.98
2018-01-22T19:10:42.013Z,100213.26
2018-01-22T19:13:14.746Z,100221.31
2018-01-22T19:15:47.321Z,100222.52
2018-01-22T19:18:19.932Z,100233.87
2018-01-22T19:20:53.396Z,100234.72
2018-01-22T19:23:27.049Z,100236.82
2018-01-22T19:25:59.746Z,100236.41
2018-01-22T19:28:32.724Z,100250.81
2018-01-22T19:31:05.376Z,100251.20
2018-01-22T19:33:38.124Z,100256.66
2018-01-22T19:36:10.869Z,100265.53
2018-01-22T19:38:43.582Z,100273.18
2018-01-22T19:41:16.228Z,100266.40
2018-01-22T19:43:48.762Z,100262.98
2018-01-22T19:46:21.516Z,100273.56
2018-01-22T19:48:55.103Z,100282.47
2018-01-22T19:51:27.607Z,100276.94
2018-01-22T19:54:00.744Z,100288.81
2018-01-22T19:56:33.832Z,100288.39
2018-01-22T19:59:08.119Z,100300.66
2018-01-22T20:01:40.656Z,100303.67
2018-01-22T20:04:13.702Z,100297.92
2018-01-22T20:06:46.398Z,100307.20
2018-01-22T20:09:19.119Z,100305.87
2018-01-22T20:11:52.184Z,100323.53
2018-01-22T20:14:25.502Z,100327.72
2018-01-22T20:16:58.566Z,100331.52
2018-01-22T20:19:33.585Z,100326.86
2018-01-22T20:22:06.352Z,100331.56
2018-01-22T20:24:39.375Z,100329.45
2018-01-22T20:27:12.135Z,100342.09
2018-01-22T20:29:44.662Z,100338.30
2018-01-22T20:32:17.218Z,100343.36
2018-01-22T20:34:50.230Z,100343.45
2018-01-22T20:37:22.891Z,100345.52
2018-01-22T20:39:55.616Z,100356.91
2018-01-22T20:42:28.361Z,100351.06
2018-01-22T20:45:00.973Z,100360.34
2018-01-22T20:47:37.166Z,100365.78
2018-01-22T20:50:10.245Z,100365.78
2018-01-22T20:52:43.131Z,100375.11
2018-01-22T20:55:15.898Z,100377.19
2018-01-22T20:57:48.652Z,100381.41
2018-01-22T21:00:21.516Z,100383.08
2018-01-22T21:02:55.068Z,100386.03
2018-01-22T21:05:27.590Z,100401.67
2018-01-22T21:08:00.446Z,100407.19
2018-01-22T21:10:34.071Z,100412.67
2018-01-22T21:13:06.616Z,100414.36
2018-01-22T21:15:40.293Z,100417.81
2018-01-22T21:18:15.100Z,100409.80
2018-01-22T21:20:47.651Z,100413.56
2018-01-22T21:23:20.497Z,100424.53
2018-01-22T21:25:53.108Z,100421.08
2018-01-22T21:28:25.943Z,100425.66
2018-01-22T21:30:58.488Z,100419.36
2018-01-22T21:33:31.258Z,100419.84
2018-01-22T21:36:06.678Z,100421.90
2018-01-22T21:38:39.832Z,100420.19
2018-01-22T21:41:13.183Z,100421.09
2018-01-22T21:43:47.358Z,100422.80
2018-01-22T21:46:19.897Z,100427.92
2018-01-22T21:48:53.534Z,100425.42
2018-01-22T21:51:26.257Z,100428.00
2018-01-22T21:53:59.019Z,100438.48
2018-01-22T21:56:31.660Z,100445.58
2018-01-22T21:59:05.279Z,100455.67
2018-01-22T22:01:38.212Z,100458.19
2018-01-22T22:04:11.091Z,100454.80
2018-01-22T22:06:44.663Z,100454.85
2018-01-22T22:09:18.363Z,100457.75
2018-01-22T22:11:51.099Z,100467.98
2018-01-22T22:14:23.834Z,100474.36
2018-01-22T22:16:56.750Z,100477.29
2018-01-22T22:19:29.977Z,100480.66
2018-01-22T22:22:03.657Z,100488.34
2018-01-22T22:24:36.802Z,100505.22
2018-01-22T22:27:09.546Z,100508.58
2018-01-22T22:29:42.322Z,100510.23
2018-01-22T22:32:14.897Z,100500.52
2018-01-22T22:34:47.413Z,100491.66
2018-01-22T22:37:20.183Z,100509.48
2018-01-22T22:39:52.806Z,100509.40
2018-01-22T22:42:26.394Z,100489.70
2018-01-22T22:44:59.115Z,100489.75
2018-01-22T22:47:32.865Z,100490.16
2018-01-22T22:50:05.391Z,100517.16
2018-01-22T22:52:38.853Z,100516.25
2018-01-22T22:55:11.494Z,100515.80
2018-01-22T22:57:45.156Z,100518.73
2018-01-22T23:00:17.871Z,100512.37
2018-01-22T23:02:50.549Z,100525.02
2018-01-22T23:05:23.270Z,100533.48
2018-01-22T23:07:56.033Z,100544.05
2018-01-22T23:10:28.750Z,100547.89
2018-01-22T23:13:01.591Z,100547.79
2018-01-22T23:15:34.789Z,100562.64
2018-01-22T23:18:07.815Z,100569.37
2018-01-22T23:20:40.398Z,100584.19
2018-01-22T23:23:13.127Z,100587.99
2018-01-22T23:25:45.717Z,100590.09
2018-01-22T23:28:18.367Z,100592.67
2018-01-22T23:30:51.291Z,100604.13
2018-01-22T23:33:23.943Z,100610.02
2018-01-22T23:35:56.581Z,100620.95
2018-01-22T23:38:29.111Z,100621.38
2018-01-22T23:41:01.604Z,100625.17
2018-01-22T23:43:35.070Z,100629.84
2018-01-22T23:46:08.094Z,100623.08
2018-01-22T23:48:40.763Z,100635.79
2018-01-22T23:51:13.275Z,100636.63
2018-01-22T23:53:47.030Z,100633.27
2018-01-22T23:56:19.685Z,100636.64
2018-01-22T23:58:52.333Z,100639.63
